sensor_id;sensor_type;location;lat;lon;timestamp;P1;durP1;ratioP1;P2;durP2;ratioP2
29452;SDS011;16424;50.956;5.320;2023-01-09T00:00:15;2.40;;;0.80;;
29452;SDS011;16424;50.956;5.320;2023-01-09T00:02:42;3.13;;;1.80;;
29452;SDS011;16424;50.956;5.320;2023-01-09T00:05:12;2.20;;;0.77;;
29452;SDS011;16424;50.956;5.320;2023-01-09T00:07:39;2.25;;;0.98;;
29452;SDS011;16424;50.956;5.320;2023-01-09T00:10:05;2.47;;;1.00;;
29452;SDS011;16424;50.956;5.320;2023-01-09T00:12:32;2.15;;;0.70;;
29452;SDS011;16424;50.956;5.320;2023-01-09T00:14:58;0.82;;;0.65;;
29452;SDS011;16424;50.956;5.320;2023-01-09T00:17:23;1.88;;;1.17;;
29452;SDS011;16424;50.956;5.320;2023-01-09T00:19:49;0.85;;;0.60;;
29452;SDS011;16424;50.956;5.320;2023-01-09T00:22:15;2.83;;;0.77;;
29452;SDS011;16424;50.956;5.320;2023-01-09T00:24:40;2.83;;;0.88;;
29452;SDS011;16424;50.956;5.320;2023-01-09T00:27:06;1.75;;;0.70;;
29452;SDS011;16424;50.956;5.320;2023-01-09T00:29:32;1.15;;;0.63;;
29452;SDS011;16424;50.956;5.320;2023-01-09T00:31:58;1.42;;;0.68;;
29452;SDS011;16424;50.956;5.320;2023-01-09T00:34:24;1.83;;;0.63;;
29452;SDS011;16424;50.956;5.320;2023-01-09T00:36:50;0.90;;;0.50;;
29452;SDS011;16424;50.956;5.320;2023-01-09T00:39:20;1.48;;;0.60;;
29452;SDS011;16424;50.956;5.320;2023-01-09T00:41:48;0.40;;;0.40;;
29452;SDS011;16424;50.956;5.320;2023-01-09T00:44:18;6.60;;;1.15;;
29452;SDS011;16424;50.956;5.320;2023-01-09T00:46:58;2.13;;;0.70;;
29452;SDS011;16424;50.956;5.320;2023-01-09T00:49:34;0.95;;;0.50;;
29452;SDS011;16424;50.956;5.320;2023-01-09T00:52:02;0.82;;;0.60;;
29452;SDS011;16424;50.956;5.320;2023-01-09T00:54:29;3.22;;;0.80;;
29452;SDS011;16424;50.956;5.320;2023-01-09T00:56:55;1.25;;;0.63;;
29452;SDS011;16424;50.956;5.320;2023-01-09T00:59:22;0.95;;;0.60;;
29452;SDS011;16424;50.956;5.320;2023-01-09T01:01:48;2.28;;;0.95;;
29452;SDS011;16424;50.956;5.320;2023-01-09T01:04:14;3.45;;;0.80;;
29452;SDS011;16424;50.956;5.320;2023-01-09T01:06:58;2.00;;;0.70;;
29452;SDS011;16424;50.956;5.320;2023-01-09T01:09:42;1.98;;;0.77;;
29452;SDS011;16424;50.956;5.320;2023-01-09T01:12:08;3.17;;;0.82;;
29452;SDS011;16424;50.956;5.320;2023-01-09T01:14:34;3.50;;;0.77;;
29452;SDS011;16424;50.956;5.320;2023-01-09T01:17:01;1.30;;;0.60;;
29452;SDS011;16424;50.956;5.320;2023-01-09T01:19:27;1.73;;;0.95;;
29452;SDS011;16424;50.956;5.320;2023-01-09T01:21:52;0.95;;;0.63;;
29452;SDS011;16424;50.956;5.320;2023-01-09T01:24:19;1.63;;;1.00;;
29452;SDS011;16424;50.956;5.320;2023-01-09T01:26:45;2.40;;;0.80;;
29452;SDS011;16424;50.956;5.320;2023-01-09T01:29:11;3.97;;;1.60;;
29452;SDS011;16424;50.956;5.320;2023-01-09T01:31:37;2.47;;;1.20;;
29452;SDS011;16424;50.956;5.320;2023-01-09T01:34:03;1.60;;;0.80;;
29452;SDS011;16424;50.956;5.320;2023-01-09T01:36:29;3.95;;;1.20;;
29452;SDS011;16424;50.956;5.320;2023-01-09T01:38:54;7.18;;;2.13;;
29452;SDS011;16424;50.956;5.320;2023-01-09T01:41:20;3.55;;;1.20;;
29452;SDS011;16424;50.956;5.320;2023-01-09T01:46:21;3.55;;;1.38;;
29452;SDS011;16424;50.956;5.320;2023-01-09T01:48:47;7.00;;;1.80;;
29452;SDS011;16424;50.956;5.320;2023-01-09T01:51:17;5.50;;;1.13;;
29452;SDS011;16424;50.956;5.320;2023-01-09T01:53:48;3.75;;;1.30;;
29452;SDS011;16424;50.956;5.320;2023-01-09T02:01:58;2.33;;;1.20;;
29452;SDS011;16424;50.956;5.320;2023-01-09T02:04:26;6.80;;;1.55;;
29452;SDS011;16424;50.956;5.320;2023-01-09T02:06:53;4.10;;;2.03;;
29452;SDS011;16424;50.956;5.320;2023-01-09T02:09:20;6.88;;;1.60;;
29452;SDS011;16424;50.956;5.320;2023-01-09T02:11:48;2.95;;;1.52;;
29452;SDS011;16424;50.956;5.320;2023-01-09T02:14:18;7.90;;;1.88;;
29452;SDS011;16424;50.956;5.320;2023-01-09T02:28:00;3.15;;;1.23;;
29452;SDS011;16424;50.956;5.320;2023-01-09T02:38:50;7.57;;;1.50;;
29452;SDS011;16424;50.956;5.320;2023-01-09T02:44:28;9.57;;;1.55;;
29452;SDS011;16424;50.956;5.320;2023-01-09T02:47:33;4.20;;;1.88;;
29452;SDS011;16424;50.956;5.320;2023-01-09T02:49:57;10.27;;;1.73;;
29452;SDS011;16424;50.956;5.320;2023-01-09T03:03:44;4.47;;;1.70;;
29452;SDS011;16424;50.956;5.320;2023-01-09T03:08:49;6.78;;;1.40;;
29452;SDS011;16424;50.956;5.320;2023-01-09T03:11:20;2.85;;;1.30;;
29452;SDS011;16424;50.956;5.320;2023-01-09T03:13:50;6.38;;;1.58;;
29452;SDS011;16424;50.956;5.320;2023-01-09T03:16:23;7.90;;;2.00;;
29452;SDS011;16424;50.956;5.320;2023-01-09T03:18:55;5.55;;;1.40;;
29452;SDS011;16424;50.956;5.320;2023-01-09T03:21:21;6.75;;;1.60;;
29452;SDS011;16424;50.956;5.320;2023-01-09T03:23:51;11.10;;;1.63;;
29452;SDS011;16424;50.956;5.320;2023-01-09T03:26:18;4.97;;;1.30;;
29452;SDS011;16424;50.956;5.320;2023-01-09T03:28:44;5.88;;;1.15;;
29452;SDS011;16424;50.956;5.320;2023-01-09T03:31:10;5.45;;;1.25;;
29452;SDS011;16424;50.956;5.320;2023-01-09T03:33:37;7.15;;;1.25;;
29452;SDS011;16424;50.956;5.320;2023-01-09T03:36:03;12.07;;;1.63;;
29452;SDS011;16424;50.956;5.320;2023-01-09T03:38:29;6.90;;;1.10;;
29452;SDS011;16424;50.956;5.320;2023-01-09T03:40:55;8.82;;;1.92;;
29452;SDS011;16424;50.956;5.320;2023-01-09T03:43:20;6.97;;;1.10;;
29452;SDS011;16424;50.956;5.320;2023-01-09T03:45:46;11.45;;;1.30;;
29452;SDS011;16424;50.956;5.320;2023-01-09T03:48:12;9.02;;;1.40;;
29452;SDS011;16424;50.956;5.320;2023-01-09T03:50:37;7.18;;;1.20;;
29452;SDS011;16424;50.956;5.320;2023-01-09T03:53:06;10.52;;;2.00;;
29452;SDS011;16424;50.956;5.320;2023-01-09T03:55:32;5.50;;;1.05;;
29452;SDS011;16424;50.956;5.320;2023-01-09T03:57:57;5.57;;;1.60;;
29452;SDS011;16424;50.956;5.320;2023-01-09T04:00:23;8.25;;;1.27;;
29452;SDS011;16424;50.956;5.320;2023-01-09T04:02:49;8.00;;;1.30;;
29452;SDS011;16424;50.956;5.320;2023-01-09T04:05:15;9.23;;;1.52;;
29452;SDS011;16424;50.956;5.320;2023-01-09T04:07:40;8.23;;;1.27;;
29452;SDS011;16424;50.956;5.320;2023-01-09T04:10:06;6.88;;;1.13;;
29452;SDS011;16424;50.956;5.320;2023-01-09T04:12:32;11.13;;;1.73;;
29452;SDS011;16424;50.956;5.320;2023-01-09T04:14:58;9.27;;;1.17;;
29452;SDS011;16424;50.956;5.320;2023-01-09T04:17:24;7.57;;;1.23;;
29452;SDS011;16424;50.956;5.320;2023-01-09T04:19:49;3.17;;;1.20;;
29452;SDS011;16424;50.956;5.320;2023-01-09T04:22:15;14.18;;;2.33;;
29452;SDS011;16424;50.956;5.320;2023-01-09T04:24:40;5.47;;;1.20;;
29452;SDS011;16424;50.956;5.320;2023-01-09T04:27:06;11.25;;;2.13;;
29452;SDS011;16424;50.956;5.320;2023-01-09T04:29:32;5.15;;;1.63;;
29452;SDS011;16424;50.956;5.320;2023-01-09T04:31:57;6.95;;;1.17;;
29452;SDS011;16424;50.956;5.320;2023-01-09T04:34:23;8.05;;;1.35;;
29452;SDS011;16424;50.956;5.320;2023-01-09T04:36:52;9.43;;;1.73;;
29452;SDS011;16424;50.956;5.320;2023-01-09T04:39:21;2.42;;;1.05;;
29452;SDS011;16424;50.956;5.320;2023-01-09T04:41:47;7.95;;;1.75;;
29452;SDS011;16424;50.956;5.320;2023-01-09T04:44:13;2.90;;;1.17;;
29452;SDS011;16424;50.956;5.320;2023-01-09T04:46:43;6.88;;;1.17;;
29452;SDS011;16424;50.956;5.320;2023-01-09T04:49:09;5.38;;;1.73;;
29452;SDS011;16424;50.956;5.320;2023-01-09T04:51:34;10.23;;;1.75;;
29452;SDS011;16424;50.956;5.320;2023-01-09T04:54:00;8.65;;;2.35;;
29452;SDS011;16424;50.956;5.320;2023-01-09T04:56:26;11.25;;;1.88;;
29452;SDS011;16424;50.956;5.320;2023-01-09T04:58:51;11.93;;;1.88;;
29452;SDS011;16424;50.956;5.320;2023-01-09T05:01:17;7.75;;;1.70;;
29452;SDS011;16424;50.956;5.320;2023-01-09T05:03:42;7.80;;;1.33;;
29452;SDS011;16424;50.956;5.320;2023-01-09T05:06:08;5.75;;;1.38;;
29452;SDS011;16424;50.956;5.320;2023-01-09T05:08:34;7.22;;;1.52;;
29452;SDS011;16424;50.956;5.320;2023-01-09T05:11:00;11.38;;;2.83;;
29452;SDS011;16424;50.956;5.320;2023-01-09T05:13:25;5.53;;;1.58;;
29452;SDS011;16424;50.956;5.320;2023-01-09T05:15:51;6.85;;;1.50;;
29452;SDS011;16424;50.956;5.320;2023-01-09T05:18:17;13.77;;;1.95;;
29452;SDS011;16424;50.956;5.320;2023-01-09T05:20:42;14.07;;;2.53;;
29452;SDS011;16424;50.956;5.320;2023-01-09T05:23:08;10.68;;;2.13;;
29452;SDS011;16424;50.956;5.320;2023-01-09T05:25:34;12.10;;;2.35;;
29452;SDS011;16424;50.956;5.320;2023-01-09T05:27:59;9.70;;;2.08;;
29452;SDS011;16424;50.956;5.320;2023-01-09T05:30:25;8.25;;;1.60;;
29452;SDS011;16424;50.956;5.320;2023-01-09T05:32:51;6.63;;;1.55;;
29452;SDS011;16424;50.956;5.320;2023-01-09T05:35:17;8.77;;;2.17;;
29452;SDS011;16424;50.956;5.320;2023-01-09T05:37:43;8.30;;;1.70;;
29452;SDS011;16424;50.956;5.320;2023-01-09T05:40:08;10.68;;;1.90;;
29452;SDS011;16424;50.956;5.320;2023-01-09T05:42:34;10.00;;;1.67;;
29452;SDS011;16424;50.956;5.320;2023-01-09T05:45:00;10.57;;;1.90;;
29452;SDS011;16424;50.956;5.320;2023-01-09T05:47:26;7.40;;;1.70;;
29452;SDS011;16424;50.956;5.320;2023-01-09T05:49:52;12.93;;;1.95;;
29452;SDS011;16424;50.956;5.320;2023-01-09T05:52:23;10.68;;;1.73;;
29452;SDS011;16424;50.956;5.320;2023-01-09T05:54:49;8.02;;;2.47;;
29452;SDS011;16424;50.956;5.320;2023-01-09T05:57:18;8.95;;;1.70;;
29452;SDS011;16424;50.956;5.320;2023-01-09T05:59:43;11.90;;;1.70;;
29452;SDS011;16424;50.956;5.320;2023-01-09T06:02:09;8.52;;;2.17;;
29452;SDS011;16424;50.956;5.320;2023-01-09T06:04:35;14.57;;;2.35;;
29452;SDS011;16424;50.956;5.320;2023-01-09T06:07:00;11.38;;;1.63;;
29452;SDS011;16424;50.956;5.320;2023-01-09T06:09:26;7.50;;;1.50;;
29452;SDS011;16424;50.956;5.320;2023-01-09T06:11:52;13.98;;;1.90;;
29452;SDS011;16424;50.956;5.320;2023-01-09T06:14:21;13.88;;;2.15;;
29452;SDS011;16424;50.956;5.320;2023-01-09T06:16:47;10.00;;;1.50;;
29452;SDS011;16424;50.956;5.320;2023-01-09T06:19:13;7.95;;;1.40;;
29452;SDS011;16424;50.956;5.320;2023-01-09T06:21:39;8.48;;;2.42;;
29452;SDS011;16424;50.956;5.320;2023-01-09T06:24:05;7.13;;;1.70;;
29452;SDS011;16424;50.956;5.320;2023-01-09T06:26:31;6.25;;;1.67;;
29452;SDS011;16424;50.956;5.320;2023-01-09T06:28:57;10.77;;;2.55;;
29452;SDS011;16424;50.956;5.320;2023-01-09T06:31:24;10.60;;;1.88;;
29452;SDS011;16424;50.956;5.320;2023-01-09T06:33:50;10.60;;;1.67;;
29452;SDS011;16424;50.956;5.320;2023-01-09T06:36:16;7.43;;;1.50;;
29452;SDS011;16424;50.956;5.320;2023-01-09T06:38:41;5.57;;;2.13;;
29452;SDS011;16424;50.956;5.320;2023-01-09T06:41:07;7.10;;;1.48;;
29452;SDS011;16424;50.956;5.320;2023-01-09T06:43:33;8.77;;;2.05;;
29452;SDS011;16424;50.956;5.320;2023-01-09T06:45:59;8.35;;;1.38;;
29452;SDS011;16424;50.956;5.320;2023-01-09T06:48:25;14.48;;;2.00;;
29452;SDS011;16424;50.956;5.320;2023-01-09T06:50:51;7.22;;;1.65;;
29452;SDS011;16424;50.956;5.320;2023-01-09T06:53:17;9.20;;;1.40;;
29452;SDS011;16424;50.956;5.320;2023-01-09T06:55:43;8.80;;;2.22;;
29452;SDS011;16424;50.956;5.320;2023-01-09T06:58:10;7.68;;;1.80;;
29452;SDS011;16424;50.956;5.320;2023-01-09T07:00:36;9.55;;;2.35;;
29452;SDS011;16424;50.956;5.320;2023-01-09T07:03:02;7.97;;;2.10;;
29452;SDS011;16424;50.956;5.320;2023-01-09T07:05:29;8.90;;;2.00;;
29452;SDS011;16424;50.956;5.320;2023-01-09T07:07:55;9.18;;;1.75;;
29452;SDS011;16424;50.956;5.320;2023-01-09T07:10:21;10.05;;;1.73;;
29452;SDS011;16424;50.956;5.320;2023-01-09T07:12:47;7.40;;;1.45;;
29452;SDS011;16424;50.956;5.320;2023-01-09T07:15:12;5.00;;;1.60;;
29452;SDS011;16424;50.956;5.320;2023-01-09T07:17:38;7.75;;;1.23;;
29452;SDS011;16424;50.956;5.320;2023-01-09T07:20:04;7.10;;;1.30;;
29452;SDS011;16424;50.956;5.320;2023-01-09T07:22:31;5.95;;;1.48;;
29452;SDS011;16424;50.956;5.320;2023-01-09T07:24:56;5.07;;;1.38;;
29452;SDS011;16424;50.956;5.320;2023-01-09T07:27:22;9.45;;;2.25;;
29452;SDS011;16424;50.956;5.320;2023-01-09T07:29:48;4.30;;;1.10;;
29452;SDS011;16424;50.956;5.320;2023-01-09T07:32:15;7.00;;;1.42;;
29452;SDS011;16424;50.956;5.320;2023-01-09T07:34:41;12.07;;;1.48;;
29452;SDS011;16424;50.956;5.320;2023-01-09T07:37:07;10.52;;;1.95;;
29452;SDS011;16424;50.956;5.320;2023-01-09T07:39:32;4.55;;;1.23;;
29452;SDS011;16424;50.956;5.320;2023-01-09T07:41:58;12.07;;;1.75;;
29452;SDS011;16424;50.956;5.320;2023-01-09T07:44:24;8.38;;;1.45;;
29452;SDS011;16424;50.956;5.320;2023-01-09T07:46:49;9.77;;;1.77;;
29452;SDS011;16424;50.956;5.320;2023-01-09T07:49:15;8.93;;;1.40;;
29452;SDS011;16424;50.956;5.320;2023-01-09T07:51:41;7.13;;;1.08;;
29452;SDS011;16424;50.956;5.320;2023-01-09T07:54:10;6.75;;;1.52;;
29452;SDS011;16424;50.956;5.320;2023-01-09T07:56:38;5.88;;;1.85;;
29452;SDS011;16424;50.956;5.320;2023-01-09T07:59:04;4.47;;;1.33;;
29452;SDS011;16424;50.956;5.320;2023-01-09T08:01:30;5.18;;;1.33;;
29452;SDS011;16424;50.956;5.320;2023-01-09T08:03:56;9.68;;;1.40;;
29452;SDS011;16424;50.956;5.320;2023-01-09T08:06:21;13.00;;;2.45;;
29452;SDS011;16424;50.956;5.320;2023-01-09T08:08:47;9.70;;;1.63;;
29452;SDS011;16424;50.956;5.320;2023-01-09T08:11:14;8.27;;;1.52;;
29452;SDS011;16424;50.956;5.320;2023-01-09T08:13:39;6.78;;;2.28;;
29452;SDS011;16424;50.956;5.320;2023-01-09T08:16:05;12.05;;;1.92;;
29452;SDS011;16424;50.956;5.320;2023-01-09T08:18:31;9.07;;;1.73;;
29452;SDS011;16424;50.956;5.320;2023-01-09T08:20:57;8.40;;;1.45;;
29452;SDS011;16424;50.956;5.320;2023-01-09T08:23:23;7.80;;;1.77;;
29452;SDS011;16424;50.956;5.320;2023-01-09T08:25:49;9.80;;;1.83;;
29452;SDS011;16424;50.956;5.320;2023-01-09T08:28:14;3.85;;;1.33;;
29452;SDS011;16424;50.956;5.320;2023-01-09T08:30:41;4.03;;;1.08;;
29452;SDS011;16424;50.956;5.320;2023-01-09T08:33:09;6.93;;;1.80;;
29452;SDS011;16424;50.956;5.320;2023-01-09T08:35:34;11.52;;;2.67;;
29452;SDS011;16424;50.956;5.320;2023-01-09T08:38:01;6.85;;;1.30;;
29452;SDS011;16424;50.956;5.320;2023-01-09T08:40:27;9.50;;;2.15;;
29452;SDS011;16424;50.956;5.320;2023-01-09T08:42:52;14.25;;;2.33;;
29452;SDS011;16424;50.956;5.320;2023-01-09T08:45:36;6.68;;;1.75;;
29452;SDS011;16424;50.956;5.320;2023-01-09T08:48:20;12.02;;;1.92;;
29452;SDS011;16424;50.956;5.320;2023-01-09T08:50:46;10.05;;;2.00;;
29452;SDS011;16424;50.956;5.320;2023-01-09T08:53:11;5.68;;;1.50;;
29452;SDS011;16424;50.956;5.320;2023-01-09T08:55:37;7.57;;;1.65;;
29452;SDS011;16424;50.956;5.320;2023-01-09T08:58:03;7.97;;;1.73;;
29452;SDS011;16424;50.956;5.320;2023-01-09T09:00:29;9.77;;;1.83;;
29452;SDS011;16424;50.956;5.320;2023-01-09T09:02:55;6.35;;;2.13;;
29452;SDS011;16424;50.956;5.320;2023-01-09T09:05:22;4.95;;;1.27;;
29452;SDS011;16424;50.956;5.320;2023-01-09T09:07:50;7.03;;;2.00;;
29452;SDS011;16424;50.956;5.320;2023-01-09T09:10:18;8.32;;;1.52;;
29452;SDS011;16424;50.956;5.320;2023-01-09T09:12:52;9.27;;;2.55;;
29452;SDS011;16424;50.956;5.320;2023-01-09T09:15:19;8.57;;;1.37;;
29452;SDS011;16424;50.956;5.320;2023-01-09T09:18:02;10.13;;;1.92;;
29452;SDS011;16424;50.956;5.320;2023-01-09T09:20:30;7.25;;;1.60;;
29452;SDS011;16424;50.956;5.320;2023-01-09T09:22:58;5.60;;;1.63;;
29452;SDS011;16424;50.956;5.320;2023-01-09T09:25:24;7.22;;;1.63;;
29452;SDS011;16424;50.956;5.320;2023-01-09T09:27:50;4.47;;;1.58;;
29452;SDS011;16424;50.956;5.320;2023-01-09T09:30:17;6.63;;;1.75;;
29452;SDS011;16424;50.956;5.320;2023-01-09T09:32:43;7.30;;;1.30;;
29452;SDS011;16424;50.956;5.320;2023-01-09T09:35:10;5.38;;;1.23;;
29452;SDS011;16424;50.956;5.320;2023-01-09T09:37:36;6.45;;;1.05;;
29452;SDS011;16424;50.956;5.320;2023-01-09T09:40:03;5.30;;;1.15;;
29452;SDS011;16424;50.956;5.320;2023-01-09T09:45:58;6.45;;;1.35;;
29452;SDS011;16424;50.956;5.320;2023-01-09T09:53:35;4.90;;;1.00;;
29452;SDS011;16424;50.956;5.320;2023-01-09T09:56:09;1.67;;;0.65;;
29452;SDS011;16424;50.956;5.320;2023-01-09T09:58:37;3.03;;;0.90;;
29452;SDS011;16424;50.956;5.320;2023-01-09T10:01:06;4.68;;;0.80;;
29452;SDS011;16424;50.956;5.320;2023-01-09T10:03:34;1.70;;;1.30;;
29452;SDS011;16424;50.956;5.320;2023-01-09T10:06:25;1.77;;;0.85;;
29452;SDS011;16424;50.956;5.320;2023-01-09T10:11:23;3.83;;;0.70;;
29452;SDS011;16424;50.956;5.320;2023-01-09T10:14:02;4.03;;;0.95;;
29452;SDS011;16424;50.956;5.320;2023-01-09T10:19:10;1.83;;;0.60;;
29452;SDS011;16424;50.956;5.320;2023-01-09T10:26:51;1.40;;;0.60;;
29452;SDS011;16424;50.956;5.320;2023-01-09T10:34:42;1.08;;;0.70;;
29452;SDS011;16424;50.956;5.320;2023-01-09T10:37:27;1.45;;;0.50;;
29452;SDS011;16424;50.956;5.320;2023-01-09T10:42:31;4.03;;;0.77;;
29452;SDS011;16424;50.956;5.320;2023-01-09T10:45:05;2.60;;;1.00;;
29452;SDS011;16424;50.956;5.320;2023-01-09T10:47:37;1.60;;;0.50;;
29452;SDS011;16424;50.956;5.320;2023-01-09T10:50:38;0.98;;;0.50;;
29452;SDS011;16424;50.956;5.320;2023-01-09T10:53:04;2.22;;;0.60;;
29452;SDS011;16424;50.956;5.320;2023-01-09T10:55:43;1.95;;;0.65;;
29452;SDS011;16424;50.956;5.320;2023-01-09T10:58:21;0.73;;;0.60;;
29452;SDS011;16424;50.956;5.320;2023-01-09T11:00:47;2.70;;;0.60;;
29452;SDS011;16424;50.956;5.320;2023-01-09T11:03:15;0.90;;;0.52;;
29452;SDS011;16424;50.956;5.320;2023-01-09T11:05:49;1.83;;;0.70;;
29452;SDS011;16424;50.956;5.320;2023-01-09T11:08:21;1.10;;;0.60;;
29452;SDS011;16424;50.956;5.320;2023-01-09T11:11:31;1.10;;;0.63;;
29452;SDS011;16424;50.956;5.320;2023-01-09T11:14:13;1.92;;;1.02;;
29452;SDS011;16424;50.956;5.320;2023-01-09T11:16:52;1.20;;;0.63;;
29452;SDS011;16424;50.956;5.320;2023-01-09T11:19:18;2.47;;;0.60;;
29452;SDS011;16424;50.956;5.320;2023-01-09T11:21:45;1.88;;;0.75;;
29452;SDS011;16424;50.956;5.320;2023-01-09T11:26:42;6.47;;;0.90;;
29452;SDS011;16424;50.956;5.320;2023-01-09T11:29:34;1.38;;;0.82;;
29452;SDS011;16424;50.956;5.320;2023-01-09T11:32:00;2.28;;;0.70;;
29452;SDS011;16424;50.956;5.320;2023-01-09T11:34:26;2.47;;;0.77;;
29452;SDS011;16424;50.956;5.320;2023-01-09T11:37:05;1.40;;;0.75;;
29452;SDS011;16424;50.956;5.320;2023-01-09T11:39:34;6.35;;;1.00;;
29452;SDS011;16424;50.956;5.320;2023-01-09T11:42:05;3.45;;;1.10;;
29452;SDS011;16424;50.956;5.320;2023-01-09T11:44:41;1.77;;;0.95;;
29452;SDS011;16424;50.956;5.320;2023-01-09T11:47:23;1.33;;;0.70;;
29452;SDS011;16424;50.956;5.320;2023-01-09T11:52:42;3.55;;;0.90;;
29452;SDS011;16424;50.956;5.320;2023-01-09T11:55:10;7.20;;;1.20;;
29452;SDS011;16424;50.956;5.320;2023-01-09T11:57:39;6.35;;;1.60;;
29452;SDS011;16424;50.956;5.320;2023-01-09T12:00:27;3.05;;;1.35;;
29452;SDS011;16424;50.956;5.320;2023-01-09T12:08:05;1.73;;;0.95;;
29452;SDS011;16424;50.956;5.320;2023-01-09T12:18:43;4.88;;;1.75;;
29452;SDS011;16424;50.956;5.320;2023-01-09T12:21:33;5.07;;;1.40;;
29452;SDS011;16424;50.956;5.320;2023-01-09T12:37:50;9.00;;;1.73;;
29452;SDS011;16424;50.956;5.320;2023-01-09T12:40:43;4.13;;;1.40;;
29452;SDS011;16424;50.956;5.320;2023-01-09T12:43:44;3.70;;;1.20;;
29452;SDS011;16424;50.956;5.320;2023-01-09T12:46:22;3.50;;;1.50;;
29452;SDS011;16424;50.956;5.320;2023-01-09T12:51:40;8.23;;;1.67;;
29452;SDS011;16424;50.956;5.320;2023-01-09T12:56:50;3.88;;;1.38;;
29452;SDS011;16424;50.956;5.320;2023-01-09T13:04:41;9.63;;;1.75;;
29452;SDS011;16424;50.956;5.320;2023-01-09T13:07:31;2.60;;;1.40;;
29452;SDS011;16424;50.956;5.320;2023-01-09T13:10:21;6.18;;;1.52;;
29452;SDS011;16424;50.956;5.320;2023-01-09T13:12:51;3.10;;;1.73;;
29452;SDS011;16424;50.956;5.320;2023-01-09T13:18:34;2.72;;;1.33;;
29452;SDS011;16424;50.956;5.320;2023-01-09T13:21:06;5.30;;;1.38;;
29452;SDS011;16424;50.956;5.320;2023-01-09T13:26:39;3.35;;;1.48;;
29452;SDS011;16424;50.956;5.320;2023-01-09T13:32:24;6.82;;;2.10;;
29452;SDS011;16424;50.956;5.320;2023-01-09T13:34:43;2.97;;;1.35;;
29452;SDS011;16424;50.956;5.320;2023-01-09T13:37:21;5.75;;;1.38;;
29452;SDS011;16424;50.956;5.320;2023-01-09T13:39:55;5.28;;;2.28;;
29452;SDS011;16424;50.956;5.320;2023-01-09T13:42:25;9.65;;;2.83;;
29452;SDS011;16424;50.956;5.320;2023-01-09T13:45:36;7.35;;;1.40;;
29452;SDS011;16424;50.956;5.320;2023-01-09T13:50:42;6.32;;;2.33;;
29452;SDS011;16424;50.956;5.320;2023-01-09T13:58:29;7.28;;;1.70;;
29452;SDS011;16424;50.956;5.320;2023-01-09T14:01:01;7.28;;;1.90;;
29452;SDS011;16424;50.956;5.320;2023-01-09T14:03:30;7.05;;;1.58;;
29452;SDS011;16424;50.956;5.320;2023-01-09T14:06:01;11.60;;;1.83;;
29452;SDS011;16424;50.956;5.320;2023-01-09T14:08:29;5.50;;;2.00;;
29452;SDS011;16424;50.956;5.320;2023-01-09T14:16:00;10.95;;;3.80;;
29452;SDS011;16424;50.956;5.320;2023-01-09T14:18:34;5.78;;;1.88;;
29452;SDS011;16424;50.956;5.320;2023-01-09T14:21:03;6.68;;;2.20;;
29452;SDS011;16424;50.956;5.320;2023-01-09T14:23:58;7.03;;;2.35;;
29452;SDS011;16424;50.956;5.320;2023-01-09T14:37:34;7.47;;;1.87;;
29452;SDS011;16424;50.956;5.320;2023-01-09T14:40:01;5.05;;;1.60;;
29452;SDS011;16424;50.956;5.320;2023-01-09T14:42:29;4.60;;;1.90;;
29452;SDS011;16424;50.956;5.320;2023-01-09T14:45:12;8.45;;;2.80;;
29452;SDS011;16424;50.956;5.320;2023-01-09T14:47:43;5.72;;;2.03;;
29452;SDS011;16424;50.956;5.320;2023-01-09T14:50:31;6.95;;;2.25;;
29452;SDS011;16424;50.956;5.320;2023-01-09T14:53:05;9.57;;;1.85;;
29452;SDS011;16424;50.956;5.320;2023-01-09T15:03:27;5.85;;;1.90;;
29452;SDS011;16424;50.956;5.320;2023-01-09T15:06:01;12.23;;;2.20;;
29452;SDS011;16424;50.956;5.320;2023-01-09T15:08:27;4.47;;;1.58;;
29452;SDS011;16424;50.956;5.320;2023-01-09T15:10:53;6.90;;;2.05;;
29452;SDS011;16424;50.956;5.320;2023-01-09T15:13:42;11.63;;;2.13;;
29452;SDS011;16424;50.956;5.320;2023-01-09T15:16:11;7.32;;;2.00;;
29452;SDS011;16424;50.956;5.320;2023-01-09T15:18:43;7.68;;;2.78;;
29452;SDS011;16424;50.956;5.320;2023-01-09T15:21:19;11.20;;;1.95;;
29452;SDS011;16424;50.956;5.320;2023-01-09T15:23:47;11.48;;;2.70;;
29452;SDS011;16424;50.956;5.320;2023-01-09T15:26:27;11.85;;;2.20;;
29452;SDS011;16424;50.956;5.320;2023-01-09T15:29:01;12.38;;;3.35;;
29452;SDS011;16424;50.956;5.320;2023-01-09T15:31:37;12.57;;;3.47;;
29452;SDS011;16424;50.956;5.320;2023-01-09T15:34:05;9.13;;;2.25;;
29452;SDS011;16424;50.956;5.320;2023-01-09T15:36:31;17.15;;;3.03;;
29452;SDS011;16424;50.956;5.320;2023-01-09T15:38:57;12.48;;;2.53;;
29452;SDS011;16424;50.956;5.320;2023-01-09T15:41:25;10.45;;;2.33;;
29452;SDS011;16424;50.956;5.320;2023-01-09T15:44:20;9.98;;;3.10;;
29452;SDS011;16424;50.956;5.320;2023-01-09T15:46:50;10.20;;;1.75;;
29452;SDS011;16424;50.956;5.320;2023-01-09T15:49:20;12.70;;;2.40;;
29452;SDS011;16424;50.956;5.320;2023-01-09T15:51:46;9.15;;;2.17;;
29452;SDS011;16424;50.956;5.320;2023-01-09T15:54:14;9.02;;;2.20;;
29452;SDS011;16424;50.956;5.320;2023-01-09T15:56:41;10.90;;;2.50;;
29452;SDS011;16424;50.956;5.320;2023-01-09T15:59:44;12.13;;;2.47;;
29452;SDS011;16424;50.956;5.320;2023-01-09T16:02:03;9.90;;;2.38;;
29452;SDS011;16424;50.956;5.320;2023-01-09T16:04:50;12.98;;;2.65;;
29452;SDS011;16424;50.956;5.320;2023-01-09T16:07:19;7.57;;;2.47;;
29452;SDS011;16424;50.956;5.320;2023-01-09T16:09:45;14.10;;;2.80;;
29452;SDS011;16424;50.956;5.320;2023-01-09T16:12:16;11.57;;;2.38;;
29452;SDS011;16424;50.956;5.320;2023-01-09T16:14:54;11.02;;;2.40;;
29452;SDS011;16424;50.956;5.320;2023-01-09T16:17:24;10.25;;;2.67;;
29452;SDS011;16424;50.956;5.320;2023-01-09T16:19:55;9.77;;;2.65;;
29452;SDS011;16424;50.956;5.320;2023-01-09T16:22:28;15.35;;;2.97;;
29452;SDS011;16424;50.956;5.320;2023-01-09T16:24:57;11.13;;;2.10;;
29452;SDS011;16424;50.956;5.320;2023-01-09T16:31:04;14.15;;;3.45;;
29452;SDS011;16424;50.956;5.320;2023-01-09T16:33:57;9.98;;;2.42;;
29452;SDS011;16424;50.956;5.320;2023-01-09T16:36:29;10.85;;;3.17;;
29452;SDS011;16424;50.956;5.320;2023-01-09T16:38:57;14.75;;;3.85;;
29452;SDS011;16424;50.956;5.320;2023-01-09T16:41:25;10.82;;;2.92;;
29452;SDS011;16424;50.956;5.320;2023-01-09T16:44:09;5.05;;;2.20;;
29452;SDS011;16424;50.956;5.320;2023-01-09T16:46:36;8.68;;;2.55;;
29452;SDS011;16424;50.956;5.320;2023-01-09T16:51:42;11.65;;;3.03;;
29452;SDS011;16424;50.956;5.320;2023-01-09T16:54:08;10.40;;;2.60;;
29452;SDS011;16424;50.956;5.320;2023-01-09T16:56:33;10.77;;;2.67;;
29452;SDS011;16424;50.956;5.320;2023-01-09T16:59:01;9.23;;;3.40;;
29452;SDS011;16424;50.956;5.320;2023-01-09T17:01:27;10.43;;;2.80;;
29452;SDS011;16424;50.956;5.320;2023-01-09T17:03:52;4.35;;;2.33;;
29452;SDS011;16424;50.956;5.320;2023-01-09T17:06:20;4.70;;;2.35;;
29452;SDS011;16424;50.956;5.320;2023-01-09T17:08:50;6.78;;;2.65;;
29452;SDS011;16424;50.956;5.320;2023-01-09T17:11:20;16.88;;;2.72;;
29452;SDS011;16424;50.956;5.320;2023-01-09T17:13:48;9.13;;;2.83;;
29452;SDS011;16424;50.956;5.320;2023-01-09T17:16:15;13.73;;;2.75;;
29452;SDS011;16424;50.956;5.320;2023-01-09T17:18:41;7.35;;;2.60;;
29452;SDS011;16424;50.956;5.320;2023-01-09T17:21:11;16.20;;;3.50;;
29452;SDS011;16424;50.956;5.320;2023-01-09T17:23:40;10.00;;;2.90;;
29452;SDS011;16424;50.956;5.320;2023-01-09T17:26:08;12.93;;;3.55;;
29452;SDS011;16424;50.956;5.320;2023-01-09T17:29:01;12.57;;;2.60;;
29452;SDS011;16424;50.956;5.320;2023-01-09T17:31:27;9.98;;;2.75;;
29452;SDS011;16424;50.956;5.320;2023-01-09T17:33:54;14.00;;;3.47;;
29452;SDS011;16424;50.956;5.320;2023-01-09T17:36:27;6.43;;;2.55;;
29452;SDS011;16424;50.956;5.320;2023-01-09T17:38:56;13.40;;;3.33;;
29452;SDS011;16424;50.956;5.320;2023-01-09T17:41:23;7.07;;;2.65;;